Time;durP1;ratioP1;P1;durP2;ratioP2;P2;SDS_P1;SDS_P2;PMS_P1;PMS_P2;Temp;Humidity;BMP_temperature;BMP_pressure;BME280_temperature;BME280_humidity;BME280_pressure;Samples;Min_cycle;Max_cycle;Signal;HPM_P1;HPM_P2
2023/01/25 00:00:50;;;;;;;5.88;2.90;;;;;;;19.05;58.18;101168.06;5042774;28;20036;-88
2023/01/25 00:03:16;;;;;;;6.63;3.53;;;;;;;19.08;58.29;101162.19;5044325;28;20037;-88
2023/01/25 00:05:42;;;;;;;7.00;3.05;;;;;;;19.07;58.22;101169.47;5045327;28;20548;-88
2023/01/25 00:08:07;;;;;;;4.75;2.80;;;;;;;18.98;57.86;101161.88;5047871;28;20099;-88
2023/01/25 00:10:33;;;;;;;6.28;2.60;;;;;;;18.99;58.36;101155.41;5048225;28;20029;-88
2023/01/25 00:12:58;;;;;;;4.97;2.58;;;;;;;19.06;58.25;101164.31;5031432;28;20045;-87
2023/01/25 00:15:24;;;;;;;4.85;2.80;;;;;;;19.06;58.22;101173.25;5031340;28;20039;-88
2023/01/25 00:17:50;;;;;;;5.35;3.08;;;;;;;19.00;58.40;101178.72;5049790;28;20047;-88
2023/01/25 00:20:15;;;;;;;4.30;2.67;;;;;;;19.05;58.33;101173.47;5048128;28;20040;-88
2023/01/25 00:22:41;;;;;;;4.95;2.83;;;;;;;19.07;58.42;101174.06;5032250;28;20032;-88
2023/01/25 00:25:07;;;;;;;4.53;2.88;;;;;;;19.00;58.54;101154.34;5047147;28;20951;-88
2023/01/25 00:27:33;;;;;;;4.57;2.80;;;;;;;19.07;58.27;101160.53;5048012;28;20502;-87
2023/01/25 00:29:58;;;;;;;5.43;2.60;;;;;;;19.07;58.25;101172.19;5048203;28;20025;-87
2023/01/25 00:32:28;;;;;;;4.78;2.50;;;;;;;18.93;57.23;101187.75;5048077;28;20035;-87
2023/01/25 00:34:54;;;;;;;5.20;2.58;;;;;;;19.02;58.29;101195.59;5031326;28;20542;-87
2023/01/25 00:37:24;;;;;;;4.03;2.15;;;;;;;18.79;56.35;101209.75;5047334;28;20033;-89
2023/01/25 00:39:50;;;;;;;4.55;2.63;;;;;;;18.95;58.22;101192.94;5024381;28;20103;-87
2023/01/25 00:42:16;;;;;;;4.68;2.42;;;;;;;18.98;58.48;101183.56;5047537;28;20037;-87
2023/01/25 00:44:42;;;;;;;4.15;2.42;;;;;;;19.06;58.42;101185.97;5013744;28;20029;-88
2023/01/25 00:47:11;;;;;;;4.97;2.78;;;;;;;19.04;58.27;101166.38;5047725;28;20430;-87
2023/01/25 00:49:37;;;;;;;3.83;2.25;;;;;;;19.01;58.35;101145.19;5046937;28;20032;-87
2023/01/25 00:52:03;;;;;;;3.70;2.00;;;;;;;19.05;58.48;101120.13;5047891;28;20356;-89
2023/01/25 00:54:29;;;;;;;2.97;2.00;;;;;;;19.07;58.47;101109.06;5048551;28;20100;-89
2023/01/25 00:56:55;;;;;;;3.75;2.28;;;;;;;19.07;58.42;101085.50;5047473;28;20162;-89
2023/01/25 00:59:21;;;;;;;3.60;2.05;;;;;;;19.03;58.63;101062.63;5046846;28;20442;-89
2023/01/25 01:01:47;;;;;;;4.57;2.50;;;;;;;19.05;58.40;101057.00;5047653;28;20540;-88
2023/01/25 01:04:13;;;;;;;4.57;2.55;;;;;;;19.08;58.41;101048.41;5046831;28;20049;-88
2023/01/25 01:06:38;;;;;;;3.45;1.95;;;;;;;19.06;58.48;101051.34;5047450;28;20483;-88
2023/01/25 01:09:05;;;;;;;3.28;2.17;;;;;;;19.09;58.46;101055.47;5048600;28;20622;-88
2023/01/25 01:11:31;;;;;;;3.85;1.90;;;;;;;19.07;58.52;101065.72;5048319;28;20117;-88
2023/01/25 01:13:57;;;;;;;4.28;2.20;;;;;;;19.07;58.59;101073.84;5035675;28;20041;-88
2023/01/25 01:16:23;;;;;;;2.85;1.80;;;;;;;19.00;57.45;101056.84;4992851;28;20036;-88
2023/01/25 01:18:49;;;;;;;4.10;2.10;;;;;;;19.09;58.58;101058.16;4977023;28;20030;-87
2023/01/25 01:21:15;;;;;;;3.05;1.70;;;;;;;19.09;58.62;101066.31;5010289;28;20127;-87
2023/01/25 01:23:41;;;;;;;2.63;1.90;;;;;;;18.98;56.59;101043.53;5006493;28;20025;-87
2023/01/25 01:26:08;;;;;;;2.05;1.55;;;;;;;19.06;58.65;101039.69;5010593;28;20041;-87
2023/01/25 01:28:34;;;;;;;4.32;2.08;;;;;;;19.09;58.51;101028.38;5010938;28;20037;-87
2023/01/25 01:31:08;;;;;;;3.33;1.75;;;;;;;19.08;58.68;101011.31;5033158;28;20037;-88
2023/01/25 01:33:33;;;;;;;3.28;1.70;;;;;;;19.09;58.50;101001.28;5015272;28;20024;-87
2023/01/25 01:36:08;;;;;;;3.20;1.70;;;;;;;19.08;58.36;100988.81;5034067;28;20029;-87
2023/01/25 01:38:34;;;;;;;3.13;1.75;;;;;;;19.08;58.63;100986.09;5034151;28;20056;-88
2023/01/25 01:41:00;;;;;;;3.78;1.80;;;;;;;19.08;58.53;100991.53;5013148;28;20277;-88
2023/01/25 01:43:25;;;;;;;2.22;1.40;;;;;;;19.07;58.56;100987.97;5028585;28;20028;-87
2023/01/25 01:45:54;;;;;;;2.00;1.40;;;;;;;19.05;58.54;100973.81;5028680;28;20034;-87
2023/01/25 01:48:27;;;;;;;1.95;1.23;;;;;;;19.09;58.50;100977.75;4993904;28;20040;-87
2023/01/25 01:50:56;;;;;;;1.80;1.25;;;;;;;19.04;57.64;100984.88;5007484;28;20108;-88
2023/01/25 01:53:22;;;;;;;2.15;1.48;;;;;;;19.02;58.61;100974.28;5010339;28;20209;-87
2023/01/25 01:55:48;;;;;;;2.25;1.40;;;;;;;19.00;58.13;100978.28;4993616;28;20395;-87
2023/01/25 01:58:13;;;;;;;1.73;1.30;;;;;;;19.04;58.64;100968.63;5027901;28;20033;-87
2023/01/25 02:00:39;;;;;;;2.17;1.33;;;;;;;19.07;58.27;100973.59;5009699;28;20041;-88
2023/01/25 02:03:05;;;;;;;2.15;1.30;;;;;;;19.06;58.81;100974.69;4993643;28;20030;-88
2023/01/25 02:06:09;;;;;;;2.65;1.35;;;;;;;19.09;58.33;100985.03;5007583;28;20052;-87
2023/01/25 02:08:35;;;;;;;1.88;1.20;;;;;;;19.05;58.70;100975.72;5011456;28;20398;-87
2023/01/25 02:11:02;;;;;;;2.22;1.20;;;;;;;19.03;58.15;100969.72;5009970;28;20021;-87
2023/01/25 02:13:27;;;;;;;1.88;1.20;;;;;;;19.02;58.89;100955.31;5007454;28;20124;-86
2023/01/25 02:15:56;;;;;;;2.13;1.27;;;;;;;19.07;58.79;100941.91;5027776;28;20033;-87
2023/01/25 02:18:22;;;;;;;1.85;1.33;;;;;;;19.08;58.50;100926.50;5029463;28;20036;-87
2023/01/25 02:20:50;;;;;;;1.55;1.15;;;;;;;19.07;58.82;100900.47;5045697;28;20025;-87
2023/01/25 02:23:22;;;;;;;1.80;1.20;;;;;;;19.07;58.74;100914.81;5047443;28;20028;-87
2023/01/25 02:25:47;;;;;;;2.22;1.40;;;;;;;19.08;58.67;100904.84;5042495;28;20387;-87
2023/01/25 02:28:17;;;;;;;2.20;1.33;;;;;;;19.08;58.63;100896.72;5045920;28;20044;-87
2023/01/25 02:30:42;;;;;;;1.75;1.20;;;;;;;19.08;58.65;100907.53;5044895;28;20418;-88
2023/01/25 02:33:08;;;;;;;1.88;1.17;;;;;;;19.07;58.86;100905.88;5046132;28;20119;-88
2023/01/25 02:35:52;;;;;;;1.73;1.23;;;;;;;19.10;58.77;100921.69;5046665;28;20044;-88
2023/01/25 02:38:18;;;;;;;1.90;1.27;;;;;;;19.10;58.76;100921.69;5046161;28;20024;-88
2023/01/25 02:40:48;;;;;;;1.75;1.25;;;;;;;19.11;58.73;100923.34;5045380;28;20116;-87
2023/01/25 02:43:14;;;;;;;1.60;1.00;;;;;;;19.10;58.77;100913.56;5046900;28;20029;-87
2023/01/25 02:45:40;;;;;;;2.08;1.00;;;;;;;19.12;58.34;100911.44;5043025;28;20021;-87
2023/01/25 02:48:06;;;;;;;1.83;1.10;;;;;;;19.12;58.48;100887.03;5046737;28;20486;-87
2023/01/25 02:50:31;;;;;;;3.05;1.20;;;;;;;19.12;58.79;100900.59;5046817;28;20021;-88
2023/01/25 02:52:57;;;;;;;1.38;1.00;;;;;;;19.13;58.73;100888.72;5047277;28;20410;-88
2023/01/25 02:55:22;;;;;;;0.82;0.80;;;;;;;19.12;58.52;100897.88;5046245;28;20031;-88
2023/01/25 02:57:48;;;;;;;1.67;1.00;;;;;;;19.12;58.76;100887.03;5047182;28;20029;-88
2023/01/25 03:00:14;;;;;;;1.77;1.00;;;;;;;19.12;58.83;100876.22;5044967;28;20039;-88
2023/01/25 03:02:40;;;;;;;1.10;0.93;;;;;;;19.10;58.68;100862.06;5028555;28;20045;-88
2023/01/25 03:05:06;;;;;;;1.83;1.20;;;;;;;19.11;58.71;100839.38;5044910;28;20025;-88
2023/01/25 03:07:32;;;;;;;1.40;0.95;;;;;;;19.11;58.77;100831.22;5028708;28;20028;-88
2023/01/25 03:09:57;;;;;;;0.98;0.80;;;;;;;19.11;58.90;100831.22;5046128;28;20029;-88
2023/01/25 03:12:23;;;;;;;1.80;1.10;;;;;;;19.11;58.90;100825.81;5046618;28;20021;-88
2023/01/25 03:14:48;;;;;;;2.05;1.02;;;;;;;19.12;58.86;100822.03;5026667;28;20501;-88
2023/01/25 03:17:14;;;;;;;0.68;0.65;;;;;;;19.14;58.64;100818.03;5008978;28;20030;-88
2023/01/25 03:19:40;;;;;;;1.00;0.73;;;;;;;19.10;58.77;100819.56;4991776;28;20982;-89
2023/01/25 03:22:06;;;;;;;1.38;0.80;;;;;;;19.12;58.91;100813.91;5026345;28;20021;-89
2023/01/25 03:24:31;;;;;;;1.35;1.00;;;;;;;19.11;58.74;100820.41;5027053;28;20025;-89
2023/01/25 03:27:13;;;;;;;1.00;0.80;;;;;;;19.12;58.59;100812.00;5008002;28;20123;-89
2023/01/25 03:29:40;;;;;;;1.45;0.90;;;;;;;19.07;58.72;100790.22;5025814;28;20060;-89
2023/01/25 03:32:06;;;;;;;0.80;0.70;;;;;;;19.12;58.70;100789.53;5026272;28;20419;-89
2023/01/25 03:34:31;;;;;;;1.63;1.10;;;;;;;19.14;59.01;100780.13;5026653;28;20032;-89
2023/01/25 03:36:57;;;;;;;1.17;0.93;;;;;;;19.13;58.64;100770.31;5026534;28;20041;-89
2023/01/25 03:39:23;;;;;;;1.20;0.73;;;;;;;19.13;58.58;100762.19;5008684;28;20160;-89
2023/01/25 03:41:49;;;;;;;1.35;0.82;;;;;;;19.10;58.81;100759.13;5025702;28;20533;-88
2023/01/25 03:44:14;;;;;;;0.95;0.70;;;;;;;19.14;58.83;100760.31;5012734;28;20061;-88
2023/01/25 03:46:41;;;;;;;0.88;0.60;;;;;;;19.14;59.00;100765.72;5027933;28;20576;-89
2023/01/25 03:49:07;;;;;;;1.30;0.88;;;;;;;19.14;58.63;100765.72;5030274;28;20483;-88
2023/01/25 03:51:33;;;;;;;1.17;0.85;;;;;;;19.14;58.92;100771.13;4995330;28;20480;-88
2023/01/25 03:53:58;;;;;;;0.90;0.65;;;;;;;19.12;58.72;100773.25;5030302;28;20022;-88
2023/01/25 03:56:24;;;;;;;0.63;0.57;;;;;;;19.14;58.86;100766.56;5029727;28;20052;-88
2023/01/25 03:58:50;;;;;;;0.70;0.70;;;;;;;19.16;58.82;100747.34;5012673;28;20055;-88
2023/01/25 04:01:15;;;;;;;0.80;0.60;;;;;;;19.16;59.01;100747.34;5029557;28;20140;-88
2023/01/25 04:03:41;;;;;;;1.10;0.70;;;;;;;19.13;58.88;100743.22;5030018;28;20028;-88
2023/01/25 04:06:07;;;;;;;0.65;0.60;;;;;;;19.18;58.90;100737.13;5029840;28;20091;-88
2023/01/25 04:08:32;;;;;;;1.05;0.60;;;;;;;19.17;58.97;100731.94;5012397;28;20030;-88
2023/01/25 04:11:20;;;;;;;0.88;0.60;;;;;;;19.10;57.77;100732.03;4995341;28;20036;-88
2023/01/25 04:13:46;;;;;;;0.70;0.60;;;;;;;19.16;58.84;100739.22;5029793;28;20042;-88
2023/01/25 04:16:12;;;;;;;0.93;0.68;;;;;;;19.17;59.01;100749.00;5012250;28;20498;-87
2023/01/25 04:18:38;;;;;;;0.70;0.50;;;;;;;19.15;58.84;100745.72;5029837;28;20021;-89
2023/01/25 04:21:07;;;;;;;1.05;0.80;;;;;;;19.17;58.94;100732.75;5012040;28;20021;-89
2023/01/25 04:23:33;;;;;;;0.50;0.50;;;;;;;19.16;58.93;100738.41;5029308;28;20033;-88
2023/01/25 04:26:00;;;;;;;0.70;0.70;;;;;;;19.17;58.82;100738.16;5027324;28;20427;-88
2023/01/25 04:28:26;;;;;;;0.90;0.68;;;;;;;19.11;59.00;100728.28;4995247;28;20071;-88
2023/01/25 04:30:55;;;;;;;0.70;0.60;;;;;;;19.16;59.13;100725.66;5029428;28;20044;-89
2023/01/25 04:33:21;;;;;;;0.73;0.68;;;;;;;19.09;58.82;100706.84;5027398;28;20454;-87
2023/01/25 04:35:47;;;;;;;0.70;0.70;;;;;;;19.09;59.00;100703.28;5029566;28;20064;-88
2023/01/25 04:38:13;;;;;;;0.50;0.50;;;;;;;19.17;58.70;100700.25;5026970;28;20033;-87
2023/01/25 04:40:42;;;;;;;0.52;0.52;;;;;;;19.14;58.82;100684.44;5011642;28;20506;-87
2023/01/25 04:43:07;;;;;;;0.60;0.60;;;;;;;19.16;58.70;100671.47;5029183;28;20056;-89
2023/01/25 04:45:35;;;;;;;0.63;0.60;;;;;;;19.20;58.94;100650.19;4994985;28;20029;-88
2023/01/25 04:48:08;;;;;;;0.80;0.60;;;;;;;19.18;58.98;100653.13;5011385;28;20487;-87
2023/01/25 04:50:38;;;;;;;0.53;0.50;;;;;;;19.13;59.26;100655.72;4995754;28;20083;-89
2023/01/25 04:53:04;;;;;;;0.85;0.60;;;;;;;19.18;58.96;100663.97;5028618;28;20657;-89
2023/01/25 04:55:29;;;;;;;0.73;0.60;;;;;;;19.19;58.81;100664.78;5028827;28;20333;-89
2023/01/25 04:57:58;;;;;;;0.50;0.50;;;;;;;19.11;58.75;100650.53;5011374;28;20033;-88
2023/01/25 05:00:24;;;;;;;0.43;0.43;;;;;;;19.11;58.10;100647.84;5028930;28;20033;-89
2023/01/25 05:02:50;;;;;;;0.40;0.40;;;;;;;19.16;58.75;100652.53;5028668;28;20053;-87
2023/01/25 05:05:15;;;;;;;0.50;0.50;;;;;;;19.17;59.06;100643.34;5028553;28;20083;-87
2023/01/25 05:07:41;;;;;;;0.50;0.40;;;;;;;19.21;58.99;100643.69;4993330;28;20022;-87
2023/01/25 05:10:07;;;;;;;0.47;0.43;;;;;;;19.14;59.11;100624.84;5010580;28;20499;-86
2023/01/25 05:12:33;;;;;;;0.52;0.40;;;;;;;19.20;59.02;100623.91;5026460;28;20025;-86
2023/01/25 05:14:59;;;;;;;1.17;0.57;;;;;;;19.18;59.05;100615.19;5028931;28;20037;-86
2023/01/25 05:17:25;;;;;;;0.45;0.40;;;;;;;19.19;59.17;100616.00;5028359;28;20028;-87
2023/01/25 05:19:50;;;;;;;0.50;0.50;;;;;;;19.12;58.76;100602.59;5028540;28;20076;-86
2023/01/25 05:22:17;;;;;;;0.43;0.43;;;;;;;19.20;59.13;100591.41;5028534;28;20376;-86
2023/01/25 05:24:44;;;;;;;0.50;0.40;;;;;;;19.19;58.99;100583.50;5028557;28;20021;-86
2023/01/25 05:27:11;;;;;;;0.65;0.50;;;;;;;19.14;58.92;100570.66;5028435;28;20037;-86
2023/01/25 05:29:38;;;;;;;0.73;0.40;;;;;;;19.15;58.79;100583.16;4990742;28;20022;-86
2023/01/25 05:32:17;;;;;;;0.40;0.40;;;;;;;19.13;58.82;100586.09;5028362;28;20845;-86
2023/01/25 05:34:43;;;;;;;0.50;0.50;;;;;;;19.13;58.57;100577.16;5027310;28;20032;-86
2023/01/25 05:37:11;;;;;;;0.93;0.43;;;;;;;19.18;58.75;100579.13;5028222;28;20030;-87
2023/01/25 05:39:36;;;;;;;0.30;0.30;;;;;;;19.18;59.09;100581.84;4993482;28;20479;-86
2023/01/25 05:42:02;;;;;;;0.43;0.43;;;;;;;19.19;59.19;100589.75;5027834;28;20033;-86
2023/01/25 05:44:28;;;;;;;0.50;0.50;;;;;;;19.19;59.22;100578.91;5027769;28;20022;-86
2023/01/25 05:46:54;;;;;;;0.40;0.40;;;;;;;19.19;59.23;100592.44;5027176;28;20025;-86
2023/01/25 05:49:20;;;;;;;0.47;0.40;;;;;;;19.20;59.31;100591.41;5028307;28;20026;-85
2023/01/25 05:51:45;;;;;;;0.40;0.40;;;;;;;19.21;59.02;100579.47;5027980;28;20387;-86
2023/01/25 05:54:13;;;;;;;0.40;0.40;;;;;;;19.22;59.21;100577.63;5011057;28;20092;-86
2023/01/25 05:56:39;;;;;;;0.63;0.40;;;;;;;19.22;59.23;100564.88;5027739;28;20037;-86
2023/01/25 05:59:05;;;;;;;0.32;0.32;;;;;;;19.21;59.24;100568.63;5025966;28;20387;-86
2023/01/25 06:01:30;;;;;;;0.40;0.40;;;;;;;19.22;59.50;100558.66;5026166;28;20121;-86
2023/01/25 06:03:56;;;;;;;0.38;0.38;;;;;;;19.23;59.26;100577.38;5025952;28;20116;-86
2023/01/25 06:06:22;;;;;;;0.40;0.40;;;;;;;19.18;59.20;100579.97;5008092;28;20125;-86
2023/01/25 06:08:48;;;;;;;0.60;0.45;;;;;;;19.23;59.58;100573.81;5027850;28;20470;-86
2023/01/25 06:11:15;;;;;;;0.57;0.50;;;;;;;19.23;59.25;100569.25;5027973;28;20492;-86
2023/01/25 06:13:41;;;;;;;0.50;0.50;;;;;;;19.21;59.39;100549.69;5029610;28;20519;-86
2023/01/25 06:16:07;;;;;;;0.55;0.50;;;;;;;19.23;59.23;100536.72;5029414;28;20022;-85
2023/01/25 06:18:33;;;;;;;0.40;0.40;;;;;;;19.23;59.24;100536.72;5051378;28;20006;-85
2023/01/25 06:20:59;;;;;;;0.30;0.30;;;;;;;19.23;59.30;100553.00;5034051;28;20033;-85
2023/01/25 06:23:24;;;;;;;0.52;0.43;;;;;;;19.22;59.46;100535.06;5045201;28;20117;-86
2023/01/25 06:25:50;;;;;;;0.60;0.40;;;;;;;19.23;59.24;100523.19;5011535;28;20462;-86
2023/01/25 06:28:16;;;;;;;0.35;0.35;;;;;;;19.22;59.13;100528.84;5027972;28;20329;-86
2023/01/25 06:30:42;;;;;;;0.55;0.40;;;;;;;19.21;59.39;100522.59;5027033;28;20071;-86
2023/01/25 06:33:07;;;;;;;0.50;0.40;;;;;;;19.25;59.07;100531.06;5028180;28;20025;-86
2023/01/25 06:35:33;;;;;;;0.38;0.38;;;;;;;19.24;59.23;100521.28;5027769;28;20480;-86
2023/01/25 06:37:59;;;;;;;0.30;0.30;;;;;;;19.26;59.27;100521.88;5010440;28;20045;-86
2023/01/25 06:40:25;;;;;;;0.30;0.30;;;;;;;19.25;59.16;100515.63;5028072;28;20061;-86
2023/01/25 06:42:51;;;;;;;0.43;0.43;;;;;;;19.11;57.52;100503.44;5027636;28;20033;-86
2023/01/25 06:45:20;;;;;;;0.30;0.30;;;;;;;19.25;59.02;100501.28;5027742;28;20029;-85
2023/01/25 06:47:47;;;;;;;0.30;0.30;;;;;;;19.20;59.63;100499.28;4994289;28;20100;-85
2023/01/25 06:50:13;;;;;;;0.32;0.32;;;;;;;19.24;59.27;100477.94;5027294;28;20629;-86
2023/01/25 06:52:39;;;;;;;0.30;0.30;;;;;;;19.23;59.60;100466.28;5027469;28;20114;-86
2023/01/25 06:55:06;;;;;;;0.30;0.30;;;;;;;19.25;58.98;100457.94;5027770;28;20029;-86
2023/01/25 06:57:33;;;;;;;0.30;0.30;;;;;;;19.17;59.17;100464.53;5027029;28;20032;-86
2023/01/25 06:59:59;;;;;;;0.20;0.20;;;;;;;19.25;59.27;100450.59;5025509;28;20299;-86
2023/01/25 07:02:25;;;;;;;0.38;0.30;;;;;;;19.21;59.06;100441.31;5026922;28;20026;-86
2023/01/25 07:04:51;;;;;;;0.30;0.30;;;;;;;19.23;59.57;100431.06;5026928;28;20491;-86
2023/01/25 07:07:16;;;;;;;0.30;0.30;;;;;;;19.19;59.16;100431.78;5027166;28;20033;-86
2023/01/25 07:09:42;;;;;;;0.30;0.30;;;;;;;19.25;59.39;100415.38;5026778;28;20048;-86
2023/01/25 07:12:08;;;;;;;0.47;0.43;;;;;;;19.20;59.09;100412.59;5027100;28;20037;-86
2023/01/25 07:14:33;;;;;;;0.30;0.30;;;;;;;19.21;59.17;100407.97;5041256;28;20598;-86
2023/01/25 07:16:59;;;;;;;0.30;0.30;;;;;;;19.18;59.39;100395.75;5046779;28;20645;-86
2023/01/25 07:19:25;;;;;;;0.35;0.35;;;;;;;19.21;57.83;100397.97;5045394;28;20291;-85
2023/01/25 07:21:53;;;;;;;0.20;0.20;;;;;;;19.20;59.27;100390.09;5047223;28;20029;-85
2023/01/25 07:24:19;;;;;;;0.40;0.40;;;;;;;19.21;59.54;100386.31;5045573;28;20033;-86
2023/01/25 07:26:45;;;;;;;0.30;0.30;;;;;;;19.25;59.43;100403.75;5044787;28;20364;-86
2023/01/25 07:29:13;;;;;;;0.30;0.30;;;;;;;19.27;59.30;100404.31;5045702;28;20108;-86
2023/01/25 07:31:40;;;;;;;0.20;0.20;;;;;;;19.20;57.53;100399.03;5043565;28;20051;-86
2023/01/25 07:34:07;;;;;;;0.30;0.30;;;;;;;19.27;59.30;100394.28;5026794;28;20033;-86
2023/01/25 07:36:33;;;;;;;0.30;0.30;;;;;;;19.26;59.33;100405.38;5047001;28;20029;-87
2023/01/25 07:38:58;;;;;;;0.30;0.28;;;;;;;19.26;59.58;100411.59;5046982;28;20025;-87
2023/01/25 07:41:24;;;;;;;0.35;0.30;;;;;;;19.28;59.53;100403.22;5046299;28;20131;-86
2023/01/25 07:43:50;;;;;;;0.30;0.30;;;;;;;19.29;59.64;100402.97;5046867;28;20029;-87
2023/01/25 07:46:19;;;;;;;0.30;0.30;;;;;;;19.22;58.24;100413.16;5046746;28;20029;-87
2023/01/25 07:48:47;;;;;;;0.20;0.20;;;;;;;19.18;58.89;100403.88;5029022;28;20040;-87
2023/01/25 07:51:23;;;;;;;0.20;0.20;;;;;;;19.25;59.51;100409.97;5046756;28;20040;-86
2023/01/25 07:53:56;;;;;;;0.38;0.32;;;;;;;19.23;59.32;100401.28;5043829;28;20052;-86
2023/01/25 07:56:33;;;;;;;0.30;0.30;;;;;;;19.23;59.73;100405.84;5045674;28;20028;-87
2023/01/25 07:58:59;;;;;;;0.20;0.20;;;;;;;19.27;59.82;100390.75;5043892;28;20086;-87
2023/01/25 08:01:30;;;;;;;0.30;0.30;;;;;;;19.26;59.55;100400.75;5028503;28;20032;-86
2023/01/25 08:03:56;;;;;;;0.30;0.30;;;;;;;19.28;59.61;100376.13;5041673;28;20493;-87
2023/01/25 08:06:30;;;;;;;0.30;0.30;;;;;;;19.24;59.73;100380.41;5046229;28;20033;-86
2023/01/25 08:08:57;;;;;;;0.20;0.20;;;;;;;19.28;59.45;100381.56;5046422;28;20029;-87
2023/01/25 08:11:24;;;;;;;0.30;0.30;;;;;;;19.29;59.33;100378.59;5028513;28;20037;-87
2023/01/25 08:13:50;;;;;;;0.20;0.20;;;;;;;19.29;59.74;100372.38;5044994;28;20037;-88
2023/01/25 08:16:17;;;;;;;0.30;0.30;;;;;;;19.24;59.60;100359.53;5046647;28;20032;-88
2023/01/25 08:18:45;;;;;;;0.20;0.20;;;;;;;19.28;59.73;100368.00;5046652;28;20489;-88
2023/01/25 08:21:11;;;;;;;0.20;0.20;;;;;;;19.32;59.70;100371.88;5046667;28;20106;-88
2023/01/25 08:23:37;;;;;;;0.20;0.20;;;;;;;19.30;60.07;100353.16;5043896;28;20029;-88
2023/01/25 08:26:07;;;;;;;0.20;0.20;;;;;;;19.22;59.60;100356.25;5046725;28;20035;-88
2023/01/25 08:28:32;;;;;;;0.30;0.30;;;;;;;19.32;59.55;100359.16;5047480;28;20017;-87
2023/01/25 08:31:09;;;;;;;0.20;0.20;;;;;;;19.29;59.71;100348.78;5048779;28;20025;-87
2023/01/25 08:33:35;;;;;;;0.25;0.25;;;;;;;19.31;59.63;100338.53;5046051;28;20402;-87
2023/01/25 08:36:01;;;;;;;0.28;0.28;;;;;;;19.33;59.89;100341.84;5050132;28;20052;-87
2023/01/25 08:38:26;;;;;;;0.20;0.20;;;;;;;19.33;60.09;100335.56;5049838;28;20029;-87
2023/01/25 08:40:52;;;;;;;0.30;0.30;;;;;;;19.31;59.13;100326.88;5050176;28;20025;-87
2023/01/25 08:43:20;;;;;;;0.20;0.20;;;;;;;19.32;59.67;100323.91;5049534;28;20017;-87
2023/01/25 08:45:47;;;;;;;0.22;0.22;;;;;;;19.23;58.24;100309.16;5049883;28;20017;-88
2023/01/25 08:48:14;;;;;;;0.20;0.20;;;;;;;19.31;59.91;100307.91;5048348;28;20037;-87
2023/01/25 08:50:46;;;;;;;0.28;0.28;;;;;;;19.31;59.94;100311.44;5049443;28;20155;-87
2023/01/25 08:53:12;;;;;;;0.30;0.30;;;;;;;19.23;59.48;100314.56;5049716;28;20379;-87
2023/01/25 08:55:39;;;;;;;0.30;0.30;;;;;;;19.32;59.48;100315.78;5049344;28;20033;-87
2023/01/25 08:58:09;;;;;;;0.20;0.20;;;;;;;19.32;60.05;100329.34;5049615;28;20025;-87
2023/01/25 09:00:37;;;;;;;0.20;0.20;;;;;;;19.36;59.84;100318.00;5048232;28;20037;-88
2023/01/25 09:03:02;;;;;;;0.20;0.20;;;;;;;19.33;59.53;100313.88;5048529;28;20023;-87
2023/01/25 09:05:28;;;;;;;0.25;0.20;;;;;;;19.30;59.93;100322.53;5045914;28;20047;-88
2023/01/25 09:07:54;;;;;;;0.30;0.28;;;;;;;19.30;58.87;100315.22;5049846;28;20074;-87
2023/01/25 09:10:19;;;;;;;0.20;0.20;;;;;;;19.33;60.21;100320.16;5049383;28;20486;-87
2023/01/25 09:12:45;;;;;;;0.20;0.20;;;;;;;19.35;59.91;100316.34;5028523;28;20491;-87
2023/01/25 09:15:11;;;;;;;0.20;0.20;;;;;;;19.36;60.13;100307.16;5011540;28;20029;-87
2023/01/25 09:17:37;;;;;;;0.30;0.30;;;;;;;19.31;60.04;100311.44;5029205;28;20022;-86
2023/01/25 09:20:06;;;;;;;0.30;0.30;;;;;;;19.37;60.02;100319.63;5028587;28;20463;-86
2023/01/25 09:22:35;;;;;;;0.20;0.20;;;;;;;19.37;60.22;100303.38;5029542;28;20014;-86
2023/01/25 09:25:00;;;;;;;0.28;0.28;;;;;;;19.38;60.05;100299.63;5029238;28;20372;-86
2023/01/25 09:27:26;;;;;;;0.20;0.20;;;;;;;19.38;59.98;100294.19;5028816;28;20103;-86
2023/01/25 09:29:52;;;;;;;0.30;0.30;;;;;;;19.36;58.90;100283.59;5028660;28;20049;-87
2023/01/25 09:32:17;;;;;;;0.25;0.25;;;;;;;19.39;60.03;100282.28;5029225;28;20033;-87
2023/01/25 09:34:43;;;;;;;0.20;0.20;;;;;;;19.41;60.01;100291.00;5028955;28;20093;-86
2023/01/25 09:37:08;;;;;;;0.30;0.30;;;;;;;19.40;60.06;100275.78;5028864;28;20022;-86
2023/01/25 09:39:34;;;;;;;0.20;0.20;;;;;;;19.41;60.14;100282.84;5026112;28;20025;-86
2023/01/25 09:42:15;;;;;;;0.20;0.20;;;;;;;19.42;59.99;100281.78;5028625;28;20075;-86
2023/01/25 09:45:03;;;;;;;0.30;0.20;;;;;;;19.42;60.08;100284.47;5027779;28;20025;-86
2023/01/25 09:48:11;;;;;;;0.20;0.20;;;;;;;19.32;59.68;100277.03;5026522;28;20083;-86
2023/01/25 09:51:03;;;;;;;0.20;0.20;;;;;;;19.42;60.09;100284.47;4994596;28;20077;-86
2023/01/25 09:53:40;;;;;;;0.30;0.30;;;;;;;19.44;60.30;100276.94;4995694;28;20053;-86
2023/01/25 09:56:28;;;;;;;0.20;0.20;;;;;;;19.44;60.25;100271.53;5021563;28;20030;-85
2023/01/25 09:58:59;;;;;;;0.20;0.20;;;;;;;19.42;60.21;100284.47;4996300;28;20029;-84
2023/01/25 10:01:30;;;;;;;0.22;0.22;;;;;;;19.37;60.31;100285.25;5028238;28;20037;-85
2023/01/25 10:04:16;;;;;;;0.20;0.20;;;;;;;19.45;60.20;100278.56;5028070;28;20025;-85
2023/01/25 10:06:44;;;;;;;0.20;0.20;;;;;;;19.44;60.28;100261.50;5028339;28;20044;-85
2023/01/25 10:09:36;;;;;;;0.20;0.20;;;;;;;19.42;58.99;100251.97;5010774;28;20029;-84
2023/01/25 10:12:14;;;;;;;0.10;0.10;;;;;;;19.43;60.08;100253.63;4980641;28;20041;-84
2023/01/25 10:14:40;;;;;;;0.13;0.13;;;;;;;19.43;60.19;100242.78;5044159;28;20550;-84
2023/01/25 10:17:11;;;;;;;0.20;0.20;;;;;;;19.47;60.38;100235.78;5045278;28;20058;-83
2023/01/25 10:19:39;;;;;;;0.20;0.20;;;;;;;19.47;60.43;100235.78;5047523;28;20056;-84
2023/01/25 10:22:12;;;;;;;0.20;0.20;;;;;;;19.46;60.27;100228.72;5048557;28;20109;-84
2023/01/25 10:25:12;;;;;;;0.20;0.20;;;;;;;19.47;60.26;100233.06;5030275;28;20012;-84
2023/01/25 10:27:46;;;;;;;0.20;0.20;;;;;;;19.47;60.07;100233.06;5044733;28;20033;-84
2023/01/25 10:30:28;;;;;;;0.30;0.30;;;;;;;19.49;60.16;100214.69;5047596;28;20119;-84
2023/01/25 10:32:58;;;;;;;0.30;0.20;;;;;;;19.46;59.87;100223.31;5047969;28;20387;-84
2023/01/25 10:35:31;;;;;;;0.22;0.20;;;;;;;19.48;60.03;100226.59;5046013;28;20648;-84
2023/01/25 10:38:04;;;;;;;0.17;0.17;;;;;;;19.47;60.22;100217.66;5047373;28;20033;-84
2023/01/25 10:40:34;;;;;;;0.20;0.20;;;;;;;19.43;59.44;100218.38;5044730;28;20033;-84
2023/01/25 10:43:11;;;;;;;0.10;0.10;;;;;;;19.48;60.36;100205.72;5046327;28;20028;-84
2023/01/25 10:45:41;;;;;;;0.25;0.25;;;;;;;19.50;60.20;100203.56;5046218;28;20029;-85
2023/01/25 10:48:10;;;;;;;0.20;0.20;;;;;;;19.46;60.46;100196.22;5046150;28;20021;-84
2023/01/25 10:50:41;;;;;;;0.28;0.20;;;;;;;19.52;59.89;100208.75;5045822;28;20375;-84
2023/01/25 10:53:19;;;;;;;0.20;0.20;;;;;;;19.50;60.39;100189.19;5047158;28;20064;-84
2023/01/25 10:56:01;;;;;;;0.20;0.20;;;;;;;19.46;59.58;100198.91;5045466;28;20028;-84
2023/01/25 10:58:37;;;;;;;0.20;0.20;;;;;;;19.48;60.08;100191.34;5043942;28;20021;-85
2023/01/25 11:01:05;;;;;;;0.15;0.15;;;;;;;19.45;60.04;100192.66;5045631;28;20204;-84
2023/01/25 11:03:36;;;;;;;0.20;0.20;;;;;;;19.50;60.40;100200.84;5046445;28;20025;-84
2023/01/25 11:06:02;;;;;;;0.35;0.20;;;;;;;19.45;59.94;100192.66;5045888;28;20056;-85
2023/01/25 11:08:36;;;;;;;0.20;0.20;;;;;;;19.54;60.26;100194.94;5029462;28;20259;-85
2023/01/25 11:11:24;;;;;;;0.20;0.20;;;;;;;19.53;60.33;100191.41;5045224;28;20106;-85
2023/01/25 11:13:53;;;;;;;0.20;0.20;;;;;;;19.53;60.68;100183.28;5045136;28;20037;-85
2023/01/25 11:16:29;;;;;;;0.20;0.20;;;;;;;19.54;60.25;100163.25;5046975;28;20115;-85
2023/01/25 11:18:56;;;;;;;0.20;0.20;;;;;;;19.51;60.60;100158.34;5046939;28;20021;-86
2023/01/25 11:21:31;;;;;;;0.30;0.30;;;;;;;19.53;60.29;100156.19;5030826;28;20390;-86
2023/01/25 11:24:02;;;;;;;0.17;0.17;;;;;;;19.50;60.36;100156.69;5037429;28;20068;-85
2023/01/25 11:26:28;;;;;;;0.20;0.20;;;;;;;19.57;60.34;100160.00;5068963;28;20021;-85
2023/01/25 11:29:20;;;;;;;0.10;0.10;;;;;;;19.56;60.49;100150.25;5070622;28;20040;-86